sensor_id;sensor_type;location;lat;lon;timestamp;P1;durP1;ratioP1;P2;durP2;ratioP2
15635;SDS011;7917;50.818;6.972;2023-06-19T00:00:13;7.85;;;6.40;;
15635;SDS011;7917;50.818;6.972;2023-06-19T00:02:41;6.68;;;5.93;;
15635;SDS011;7917;50.818;6.972;2023-06-19T00:05:09;6.75;;;6.05;;
15635;SDS011;7917;50.818;6.972;2023-06-19T00:07:36;7.28;;;6.57;;
15635;SDS011;7917;50.818;6.972;2023-06-19T00:10:03;7.53;;;6.80;;
15635;SDS011;7917;50.818;6.972;2023-06-19T00:12:29;7.20;;;6.10;;
15635;SDS011;7917;50.818;6.972;2023-06-19T00:14:56;8.00;;;6.88;;
15635;SDS011;7917;50.818;6.972;2023-06-19T00:17:23;7.68;;;6.60;;
15635;SDS011;7917;50.818;6.972;2023-06-19T00:19:51;9.80;;;7.22;;
15635;SDS011;7917;50.818;6.972;2023-06-19T00:22:19;8.88;;;7.20;;
15635;SDS011;7917;50.818;6.972;2023-06-19T00:24:46;7.00;;;6.30;;
15635;SDS011;7917;50.818;6.972;2023-06-19T00:27:12;8.05;;;7.25;;
15635;SDS011;7917;50.818;6.972;2023-06-19T00:29:39;9.57;;;6.93;;
15635;SDS011;7917;50.818;6.972;2023-06-19T00:32:05;8.15;;;7.32;;
15635;SDS011;7917;50.818;6.972;2023-06-19T00:34:33;8.68;;;7.45;;
15635;SDS011;7917;50.818;6.972;2023-06-19T00:37:00;8.38;;;7.57;;
15635;SDS011;7917;50.818;6.972;2023-06-19T00:39:26;8.48;;;7.57;;
15635;SDS011;7917;50.818;6.972;2023-06-19T00:41:53;9.55;;;6.70;;
15635;SDS011;7917;50.818;6.972;2023-06-19T00:44:19;7.72;;;7.03;;
15635;SDS011;7917;50.818;6.972;2023-06-19T00:46:46;8.30;;;7.50;;
15635;SDS011;7917;50.818;6.972;2023-06-19T00:49:16;10.80;;;7.57;;
15635;SDS011;7917;50.818;6.972;2023-06-19T00:51:44;8.98;;;6.88;;
15635;SDS011;7917;50.818;6.972;2023-06-19T00:54:10;9.43;;;7.57;;
15635;SDS011;7917;50.818;6.972;2023-06-19T00:56:37;8.30;;;7.50;;
15635;SDS011;7917;50.818;6.972;2023-06-19T00:59:06;8.35;;;7.53;;
15635;SDS011;7917;50.818;6.972;2023-06-19T01:01:51;9.13;;;7.57;;
15635;SDS011;7917;50.818;6.972;2023-06-19T01:04:18;9.07;;;8.18;;
15635;SDS011;7917;50.818;6.972;2023-06-19T01:06:46;8.10;;;7.30;;
15635;SDS011;7917;50.818;6.972;2023-06-19T01:09:23;8.27;;;7.47;;
15635;SDS011;7917;50.818;6.972;2023-06-19T01:11:57;8.48;;;7.68;;
15635;SDS011;7917;50.818;6.972;2023-06-19T01:14:30;9.63;;;8.00;;
15635;SDS011;7917;50.818;6.972;2023-06-19T01:17:02;10.73;;;7.75;;
15635;SDS011;7917;50.818;6.972;2023-06-19T01:19:29;9.75;;;8.00;;
15635;SDS011;7917;50.818;6.972;2023-06-19T01:21:56;8.50;;;7.80;;
15635;SDS011;7917;50.818;6.972;2023-06-19T01:24:24;8.68;;;7.88;;
15635;SDS011;7917;50.818;6.972;2023-06-19T01:26:51;9.38;;;8.10;;
15635;SDS011;7917;50.818;6.972;2023-06-19T01:29:17;8.38;;;7.68;;
15635;SDS011;7917;50.818;6.972;2023-06-19T01:31:45;9.65;;;8.65;;
15635;SDS011;7917;50.818;6.972;2023-06-19T01:34:22;9.73;;;8.73;;
15635;SDS011;7917;50.818;6.972;2023-06-19T01:36:51;9.98;;;9.07;;
15635;SDS011;7917;50.818;6.972;2023-06-19T01:39:22;9.00;;;8.15;;
15635;SDS011;7917;50.818;6.972;2023-06-19T01:41:50;8.85;;;7.80;;
15635;SDS011;7917;50.818;6.972;2023-06-19T01:44:18;9.48;;;8.43;;
15635;SDS011;7917;50.818;6.972;2023-06-19T01:46:46;9.40;;;8.50;;
15635;SDS011;7917;50.818;6.972;2023-06-19T01:49:13;8.38;;;7.57;;
15635;SDS011;7917;50.818;6.972;2023-06-19T01:51:41;8.95;;;8.05;;
15635;SDS011;7917;50.818;6.972;2023-06-19T01:54:08;11.70;;;8.77;;
15635;SDS011;7917;50.818;6.972;2023-06-19T01:56:35;9.98;;;8.30;;
15635;SDS011;7917;50.818;6.972;2023-06-19T01:59:03;9.73;;;8.75;;
15635;SDS011;7917;50.818;6.972;2023-06-19T02:01:29;10.27;;;8.30;;
15635;SDS011;7917;50.818;6.972;2023-06-19T02:03:55;8.73;;;7.88;;
15635;SDS011;7917;50.818;6.972;2023-06-19T02:06:22;9.32;;;8.40;;
15635;SDS011;7917;50.818;6.972;2023-06-19T02:08:48;9.95;;;8.40;;
15635;SDS011;7917;50.818;6.972;2023-06-19T02:11:15;10.23;;;8.63;;
15635;SDS011;7917;50.818;6.972;2023-06-19T02:13:42;14.38;;;8.65;;
15635;SDS011;7917;50.818;6.972;2023-06-19T02:16:08;9.65;;;8.65;;
15635;SDS011;7917;50.818;6.972;2023-06-19T02:18:35;8.77;;;7.97;;
15635;SDS011;7917;50.818;6.972;2023-06-19T02:21:02;9.38;;;8.55;;
15635;SDS011;7917;50.818;6.972;2023-06-19T02:23:28;9.20;;;8.35;;
15635;SDS011;7917;50.818;6.972;2023-06-19T02:25:55;10.18;;;9.20;;
15635;SDS011;7917;50.818;6.972;2023-06-19T02:28:22;13.40;;;8.80;;
15635;SDS011;7917;50.818;6.972;2023-06-19T02:30:49;9.82;;;8.70;;
15635;SDS011;7917;50.818;6.972;2023-06-19T02:33:16;9.88;;;8.88;;
15635;SDS011;7917;50.818;6.972;2023-06-19T02:35:42;8.88;;;8.07;;
15635;SDS011;7917;50.818;6.972;2023-06-19T02:38:09;8.88;;;7.97;;
15635;SDS011;7917;50.818;6.972;2023-06-19T02:40:37;9.75;;;7.68;;
15635;SDS011;7917;50.818;6.972;2023-06-19T02:43:04;9.98;;;8.98;;
15635;SDS011;7917;50.818;6.972;2023-06-19T02:45:30;8.90;;;8.05;;
15635;SDS011;7917;50.818;6.972;2023-06-19T02:47:58;9.77;;;7.82;;
15635;SDS011;7917;50.818;6.972;2023-06-19T02:50:25;8.63;;;7.82;;
15635;SDS011;7917;50.818;6.972;2023-06-19T02:52:51;9.63;;;8.07;;
15635;SDS011;7917;50.818;6.972;2023-06-19T02:55:18;8.25;;;7.45;;
15635;SDS011;7917;50.818;6.972;2023-06-19T02:57:44;9.13;;;7.68;;
15635;SDS011;7917;50.818;6.972;2023-06-19T03:03:35;9.18;;;8.15;;
15635;SDS011;7917;50.818;6.972;2023-06-19T03:06:03;8.05;;;7.35;;
15635;SDS011;7917;50.818;6.972;2023-06-19T03:08:30;9.85;;;8.90;;
15635;SDS011;7917;50.818;6.972;2023-06-19T03:10:59;8.27;;;7.57;;
15635;SDS011;7917;50.818;6.972;2023-06-19T03:13:29;9.60;;;8.13;;
15635;SDS011;7917;50.818;6.972;2023-06-19T03:15:58;9.25;;;8.23;;
15635;SDS011;7917;50.818;6.972;2023-06-19T03:18:25;8.90;;;7.97;;
15635;SDS011;7917;50.818;6.972;2023-06-19T03:20:52;9.57;;;8.55;;
15635;SDS011;7917;50.818;6.972;2023-06-19T03:23:19;9.27;;;8.32;;
15635;SDS011;7917;50.818;6.972;2023-06-19T03:25:46;10.32;;;8.30;;
15635;SDS011;7917;50.818;6.972;2023-06-19T03:28:13;9.25;;;8.35;;
15635;SDS011;7917;50.818;6.972;2023-06-19T03:30:40;9.13;;;8.13;;
15635;SDS011;7917;50.818;6.972;2023-06-19T03:33:08;15.27;;;8.52;;
15635;SDS011;7917;50.818;6.972;2023-06-19T03:35:35;8.23;;;7.43;;
15635;SDS011;7917;50.818;6.972;2023-06-19T03:38:02;8.38;;;7.53;;
15635;SDS011;7917;50.818;6.972;2023-06-19T03:40:30;10.48;;;7.72;;
15635;SDS011;7917;50.818;6.972;2023-06-19T03:42:57;7.68;;;6.80;;
15635;SDS011;7917;50.818;6.972;2023-06-19T03:45:24;9.48;;;7.38;;
15635;SDS011;7917;50.818;6.972;2023-06-19T03:47:51;10.02;;;7.55;;
15635;SDS011;7917;50.818;6.972;2023-06-19T03:50:18;8.63;;;6.88;;
15635;SDS011;7917;50.818;6.972;2023-06-19T03:52:45;7.38;;;6.65;;
15635;SDS011;7917;50.818;6.972;2023-06-19T03:55:13;10.82;;;6.68;;
15635;SDS011;7917;50.818;6.972;2023-06-19T03:57:40;9.48;;;7.05;;
15635;SDS011;7917;50.818;6.972;2023-06-19T04:00:07;8.88;;;6.90;;
15635;SDS011;7917;50.818;6.972;2023-06-19T04:02:37;9.15;;;6.78;;
15635;SDS011;7917;50.818;6.972;2023-06-19T04:05:04;7.55;;;6.60;;
15635;SDS011;7917;50.818;6.972;2023-06-19T04:07:32;7.97;;;6.88;;
15635;SDS011;7917;50.818;6.972;2023-06-19T04:09:59;8.40;;;7.13;;
15635;SDS011;7917;50.818;6.972;2023-06-19T04:12:26;7.72;;;6.95;;
15635;SDS011;7917;50.818;6.972;2023-06-19T04:14:53;9.63;;;6.63;;
15635;SDS011;7917;50.818;6.972;2023-06-19T04:17:20;6.88;;;6.18;;
15635;SDS011;7917;50.818;6.972;2023-06-19T04:22:40;7.03;;;6.32;;
15635;SDS011;7917;50.818;6.972;2023-06-19T04:25:07;9.00;;;6.68;;
15635;SDS011;7917;50.818;6.972;2023-06-19T04:27:37;8.93;;;6.47;;
15635;SDS011;7917;50.818;6.972;2023-06-19T04:30:05;7.18;;;6.03;;
15635;SDS011;7917;50.818;6.972;2023-06-19T04:32:32;9.38;;;6.20;;
15635;SDS011;7917;50.818;6.972;2023-06-19T04:35:00;8.73;;;6.80;;
15635;SDS011;7917;50.818;6.972;2023-06-19T04:37:27;7.18;;;6.47;;
15635;SDS011;7917;50.818;6.972;2023-06-19T04:40:00;6.78;;;5.97;;
15635;SDS011;7917;50.818;6.972;2023-06-19T04:42:28;8.43;;;6.35;;
15635;SDS011;7917;50.818;6.972;2023-06-19T04:45:08;6.93;;;5.93;;
15635;SDS011;7917;50.818;6.972;2023-06-19T04:47:36;7.65;;;6.07;;
15635;SDS011;7917;50.818;6.972;2023-06-19T04:50:20;10.88;;;6.32;;
15635;SDS011;7917;50.818;6.972;2023-06-19T04:52:55;8.60;;;5.90;;
15635;SDS011;7917;50.818;6.972;2023-06-19T04:55:28;7.60;;;5.90;;
15635;SDS011;7917;50.818;6.972;2023-06-19T04:58:01;7.07;;;6.38;;
15635;SDS011;7917;50.818;6.972;2023-06-19T05:00:38;9.52;;;6.65;;
15635;SDS011;7917;50.818;6.972;2023-06-19T05:06:34;7.25;;;6.22;;
15635;SDS011;7917;50.818;6.972;2023-06-19T05:09:51;7.97;;;6.75;;
15635;SDS011;7917;50.818;6.972;2023-06-19T05:12:50;7.75;;;6.65;;
15635;SDS011;7917;50.818;6.972;2023-06-19T05:15:35;9.75;;;5.97;;
15635;SDS011;7917;50.818;6.972;2023-06-19T05:18:34;8.95;;;6.28;;
15635;SDS011;7917;50.818;6.972;2023-06-19T05:21:13;6.07;;;5.47;;
15635;SDS011;7917;50.818;6.972;2023-06-19T05:27:29;7.78;;;6.00;;
15635;SDS011;7917;50.818;6.972;2023-06-19T05:29:59;8.35;;;6.25;;
15635;SDS011;7917;50.818;6.972;2023-06-19T05:32:42;6.90;;;6.07;;
15635;SDS011;7917;50.818;6.972;2023-06-19T05:35:19;7.15;;;6.45;;
15635;SDS011;7917;50.818;6.972;2023-06-19T05:41:03;7.00;;;6.25;;
15635;SDS011;7917;50.818;6.972;2023-06-19T05:44:02;9.85;;;5.85;;
15635;SDS011;7917;50.818;6.972;2023-06-19T05:47:02;6.70;;;5.88;;
15635;SDS011;7917;50.818;6.972;2023-06-19T05:49:50;7.43;;;6.38;;
15635;SDS011;7917;50.818;6.972;2023-06-19T05:52:39;6.97;;;5.57;;
15635;SDS011;7917;50.818;6.972;2023-06-19T05:55:16;7.50;;;5.82;;
15635;SDS011;7917;50.818;6.972;2023-06-19T05:58:07;9.00;;;6.03;;
15635;SDS011;7917;50.818;6.972;2023-06-19T06:00:50;6.22;;;5.45;;
15635;SDS011;7917;50.818;6.972;2023-06-19T06:03:32;7.10;;;5.85;;
15635;SDS011;7917;50.818;6.972;2023-06-19T06:06:09;5.90;;;5.30;;
15635;SDS011;7917;50.818;6.972;2023-06-19T06:11:55;5.20;;;4.70;;
15635;SDS011;7917;50.818;6.972;2023-06-19T06:17:42;5.63;;;4.90;;
15635;SDS011;7917;50.818;6.972;2023-06-19T06:20:26;5.78;;;5.18;;
15635;SDS011;7917;50.818;6.972;2023-06-19T06:23:10;5.93;;;4.50;;
15635;SDS011;7917;50.818;6.972;2023-06-19T06:25:53;6.38;;;4.60;;
15635;SDS011;7917;50.818;6.972;2023-06-19T06:28:39;6.13;;;4.82;;
15635;SDS011;7917;50.818;6.972;2023-06-19T06:38:00;5.57;;;4.90;;
15635;SDS011;7917;50.818;6.972;2023-06-19T06:40:57;6.28;;;5.00;;
15635;SDS011;7917;50.818;6.972;2023-06-19T06:47:00;5.85;;;4.95;;
15635;SDS011;7917;50.818;6.972;2023-06-19T06:59:24;5.30;;;4.90;;
15635;SDS011;7917;50.818;6.972;2023-06-19T07:02:55;4.90;;;4.45;;
15635;SDS011;7917;50.818;6.972;2023-06-19T07:08:56;8.70;;;5.10;;
15635;SDS011;7917;50.818;6.972;2023-06-19T07:14:53;5.40;;;4.90;;
15635;SDS011;7917;50.818;6.972;2023-06-19T07:17:27;4.45;;;3.88;;
15635;SDS011;7917;50.818;6.972;2023-06-19T07:19:58;4.82;;;3.85;;
15635;SDS011;7917;50.818;6.972;2023-06-19T07:22:26;4.78;;;3.33;;
15635;SDS011;7917;50.818;6.972;2023-06-19T07:24:53;3.85;;;3.17;;
15635;SDS011;7917;50.818;6.972;2023-06-19T07:27:27;5.47;;;3.70;;
15635;SDS011;7917;50.818;6.972;2023-06-19T07:29:58;3.72;;;3.42;;
15635;SDS011;7917;50.818;6.972;2023-06-19T07:32:28;3.70;;;2.10;;
15635;SDS011;7917;50.818;6.972;2023-06-19T07:35:03;4.95;;;1.85;;
15635;SDS011;7917;50.818;6.972;2023-06-19T07:37:33;2.25;;;1.65;;
15635;SDS011;7917;50.818;6.972;2023-06-19T07:40:37;1.60;;;1.23;;
15635;SDS011;7917;50.818;6.972;2023-06-19T07:43:21;1.45;;;1.10;;
15635;SDS011;7917;50.818;6.972;2023-06-19T07:46:00;2.55;;;1.38;;
15635;SDS011;7917;50.818;6.972;2023-06-19T07:48:40;4.32;;;1.48;;
15635;SDS011;7917;50.818;6.972;2023-06-19T07:51:15;1.42;;;1.30;;
15635;SDS011;7917;50.818;6.972;2023-06-19T07:56:51;1.30;;;1.05;;
15635;SDS011;7917;50.818;6.972;2023-06-19T07:59:23;1.33;;;1.23;;
15635;SDS011;7917;50.818;6.972;2023-06-19T08:01:57;3.90;;;1.10;;
15635;SDS011;7917;50.818;6.972;2023-06-19T08:04:40;3.15;;;1.10;;
15635;SDS011;7917;50.818;6.972;2023-06-19T08:07:21;6.18;;;1.40;;
15635;SDS011;7917;50.818;6.972;2023-06-19T08:09:52;1.27;;;1.17;;
15635;SDS011;7917;50.818;6.972;2023-06-19T08:12:22;1.40;;;1.27;;
15635;SDS011;7917;50.818;6.972;2023-06-19T08:14:55;5.88;;;1.17;;
15635;SDS011;7917;50.818;6.972;2023-06-19T08:17:26;1.45;;;1.23;;
15635;SDS011;7917;50.818;6.972;2023-06-19T08:19:58;3.30;;;1.38;;
15635;SDS011;7917;50.818;6.972;2023-06-19T08:22:39;1.75;;;1.40;;
15635;SDS011;7917;50.818;6.972;2023-06-19T08:25:09;3.35;;;1.80;;
15635;SDS011;7917;50.818;6.972;2023-06-19T08:27:37;1.95;;;1.20;;
15635;SDS011;7917;50.818;6.972;2023-06-19T08:30:19;1.42;;;1.30;;
15635;SDS011;7917;50.818;6.972;2023-06-19T08:32:51;2.33;;;1.63;;
15635;SDS011;7917;50.818;6.972;2023-06-19T08:35:30;3.60;;;1.48;;
15635;SDS011;7917;50.818;6.972;2023-06-19T08:38:06;2.92;;;1.42;;
15635;SDS011;7917;50.818;6.972;2023-06-19T08:40:42;4.25;;;1.48;;
15635;SDS011;7917;50.818;6.972;2023-06-19T08:43:12;1.55;;;1.38;;
15635;SDS011;7917;50.818;6.972;2023-06-19T08:45:40;1.88;;;1.77;;
15635;SDS011;7917;50.818;6.972;2023-06-19T08:48:08;3.03;;;1.60;;
15635;SDS011;7917;50.818;6.972;2023-06-19T08:50:41;2.13;;;1.42;;
15635;SDS011;7917;50.818;6.972;2023-06-19T08:53:08;1.75;;;1.63;;
15635;SDS011;7917;50.818;6.972;2023-06-19T08:55:35;2.70;;;1.40;;
15635;SDS011;7917;50.818;6.972;2023-06-19T08:58:03;2.20;;;1.40;;
15635;SDS011;7917;50.818;6.972;2023-06-19T09:00:30;2.25;;;1.60;;
15635;SDS011;7917;50.818;6.972;2023-06-19T09:03:01;1.42;;;1.30;;
15635;SDS011;7917;50.818;6.972;2023-06-19T09:05:30;2.80;;;1.60;;
15635;SDS011;7917;50.818;6.972;2023-06-19T09:07:57;3.92;;;1.90;;
15635;SDS011;7917;50.818;6.972;2023-06-19T09:10:27;2.10;;;1.80;;
15635;SDS011;7917;50.818;6.972;2023-06-19T09:12:58;2.92;;;1.80;;
15635;SDS011;7917;50.818;6.972;2023-06-19T09:15:30;3.35;;;2.10;;
15635;SDS011;7917;50.818;6.972;2023-06-19T09:18:04;3.75;;;1.70;;
15635;SDS011;7917;50.818;6.972;2023-06-19T09:20:39;4.82;;;1.70;;
15635;SDS011;7917;50.818;6.972;2023-06-19T09:23:26;2.53;;;2.00;;
15635;SDS011;7917;50.818;6.972;2023-06-19T09:28:53;2.17;;;1.98;;
15635;SDS011;7917;50.818;6.972;2023-06-19T09:32:13;5.38;;;1.90;;
15635;SDS011;7917;50.818;6.972;2023-06-19T09:34:52;3.45;;;1.98;;
15635;SDS011;7917;50.818;6.972;2023-06-19T09:37:25;4.57;;;2.30;;
15635;SDS011;7917;50.818;6.972;2023-06-19T09:40:01;2.60;;;1.90;;
15635;SDS011;7917;50.818;6.972;2023-06-19T09:42:41;2.38;;;2.08;;
15635;SDS011;7917;50.818;6.972;2023-06-19T09:45:12;3.97;;;2.13;;
15635;SDS011;7917;50.818;6.972;2023-06-19T09:47:45;3.35;;;2.03;;
15635;SDS011;7917;50.818;6.972;2023-06-19T09:50:24;2.97;;;1.85;;
15635;SDS011;7917;50.818;6.972;2023-06-19T09:52:57;3.17;;;2.20;;
15635;SDS011;7917;50.818;6.972;2023-06-19T09:55:33;5.55;;;2.28;;
15635;SDS011;7917;50.818;6.972;2023-06-19T09:58:18;3.90;;;2.45;;
15635;SDS011;7917;50.818;6.972;2023-06-19T10:00:52;5.30;;;2.45;;
15635;SDS011;7917;50.818;6.972;2023-06-19T10:03:40;3.33;;;2.45;;
15635;SDS011;7917;50.818;6.972;2023-06-19T10:06:17;3.03;;;2.47;;
15635;SDS011;7917;50.818;6.972;2023-06-19T10:09:10;2.50;;;2.10;;
15635;SDS011;7917;50.818;6.972;2023-06-19T10:11:47;6.82;;;2.42;;
15635;SDS011;7917;50.818;6.972;2023-06-19T10:14:44;4.72;;;2.17;;
15635;SDS011;7917;50.818;6.972;2023-06-19T10:17:21;3.28;;;2.67;;
15635;SDS011;7917;50.818;6.972;2023-06-19T10:27:20;3.15;;;2.33;;
15635;SDS011;7917;50.818;6.972;2023-06-19T10:29:58;2.83;;;2.40;;
15635;SDS011;7917;50.818;6.972;2023-06-19T10:32:26;6.00;;;2.80;;
15635;SDS011;7917;50.818;6.972;2023-06-19T10:34:53;3.78;;;2.88;;
15635;SDS011;7917;50.818;6.972;2023-06-19T10:37:31;2.90;;;2.60;;
15635;SDS011;7917;50.818;6.972;2023-06-19T10:39:59;4.10;;;2.55;;
15635;SDS011;7917;50.818;6.972;2023-06-19T10:42:27;4.25;;;2.70;;
15635;SDS011;7917;50.818;6.972;2023-06-19T10:44:59;5.85;;;2.40;;
15635;SDS011;7917;50.818;6.972;2023-06-19T10:47:28;4.82;;;2.53;;
15635;SDS011;7917;50.818;6.972;2023-06-19T10:49:55;5.95;;;2.65;;
15635;SDS011;7917;50.818;6.972;2023-06-19T10:52:25;3.70;;;3.17;;
15635;SDS011;7917;50.818;6.972;2023-06-19T10:54:55;5.90;;;3.10;;
15635;SDS011;7917;50.818;6.972;2023-06-19T10:57:27;4.45;;;2.67;;
15635;SDS011;7917;50.818;6.972;2023-06-19T10:59:55;6.20;;;2.83;;
15635;SDS011;7917;50.818;6.972;2023-06-19T11:02:23;3.08;;;2.78;;
15635;SDS011;7917;50.818;6.972;2023-06-19T11:04:52;4.25;;;3.00;;
15635;SDS011;7917;50.818;6.972;2023-06-19T11:07:20;3.45;;;2.70;;
15635;SDS011;7917;50.818;6.972;2023-06-19T11:09:48;4.07;;;2.88;;
15635;SDS011;7917;50.818;6.972;2023-06-19T11:12:18;3.88;;;3.05;;
15635;SDS011;7917;50.818;6.972;2023-06-19T11:14:48;4.15;;;2.70;;
15635;SDS011;7917;50.818;6.972;2023-06-19T11:17:16;3.17;;;2.88;;
15635;SDS011;7917;50.818;6.972;2023-06-19T11:19:46;6.40;;;3.00;;
15635;SDS011;7917;50.818;6.972;2023-06-19T11:22:13;3.40;;;3.00;;
15635;SDS011;7917;50.818;6.972;2023-06-19T11:24:43;3.33;;;2.80;;
15635;SDS011;7917;50.818;6.972;2023-06-19T11:27:19;4.50;;;3.58;;
15635;SDS011;7917;50.818;6.972;2023-06-19T11:29:55;4.70;;;3.83;;
15635;SDS011;7917;50.818;6.972;2023-06-19T11:32:29;4.25;;;3.47;;
15635;SDS011;7917;50.818;6.972;2023-06-19T11:35:03;4.63;;;3.25;;
15635;SDS011;7917;50.818;6.972;2023-06-19T11:37:33;3.40;;;2.83;;
15635;SDS011;7917;50.818;6.972;2023-06-19T11:40:00;3.97;;;3.10;;
15635;SDS011;7917;50.818;6.972;2023-06-19T11:42:43;3.20;;;2.70;;
15635;SDS011;7917;50.818;6.972;2023-06-19T11:45:12;3.35;;;3.05;;
15635;SDS011;7917;50.818;6.972;2023-06-19T11:47:42;4.30;;;3.10;;
15635;SDS011;7917;50.818;6.972;2023-06-19T11:50:11;7.55;;;2.95;;
15635;SDS011;7917;50.818;6.972;2023-06-19T11:52:41;2.85;;;2.60;;
15635;SDS011;7917;50.818;6.972;2023-06-19T11:55:09;3.30;;;3.00;;
15635;SDS011;7917;50.818;6.972;2023-06-19T11:57:41;4.07;;;2.72;;
15635;SDS011;7917;50.818;6.972;2023-06-19T12:00:16;3.65;;;2.70;;
15635;SDS011;7917;50.818;6.972;2023-06-19T12:02:44;4.03;;;2.67;;
15635;SDS011;7917;50.818;6.972;2023-06-19T12:05:12;5.35;;;3.50;;
15635;SDS011;7917;50.818;6.972;2023-06-19T12:07:40;5.75;;;3.10;;
15635;SDS011;7917;50.818;6.972;2023-06-19T12:10:07;3.60;;;3.00;;
15635;SDS011;7917;50.818;6.972;2023-06-19T12:12:37;3.20;;;2.90;;
15635;SDS011;7917;50.818;6.972;2023-06-19T12:15:07;4.57;;;3.08;;
15635;SDS011;7917;50.818;6.972;2023-06-19T12:17:35;3.58;;;3.03;;
15635;SDS011;7917;50.818;6.972;2023-06-19T12:20:03;7.97;;;3.50;;
15635;SDS011;7917;50.818;6.972;2023-06-19T12:22:33;4.38;;;3.05;;
15635;SDS011;7917;50.818;6.972;2023-06-19T12:25:01;6.25;;;2.97;;
15635;SDS011;7917;50.818;6.972;2023-06-19T12:27:28;4.68;;;3.03;;
15635;SDS011;7917;50.818;6.972;2023-06-19T12:29:55;9.48;;;3.17;;
15635;SDS011;7917;50.818;6.972;2023-06-19T12:32:22;3.83;;;2.85;;
15635;SDS011;7917;50.818;6.972;2023-06-19T12:34:50;6.55;;;3.10;;
15635;SDS011;7917;50.818;6.972;2023-06-19T12:37:19;3.80;;;2.70;;
15635;SDS011;7917;50.818;6.972;2023-06-19T12:39:47;4.18;;;2.75;;
15635;SDS011;7917;50.818;6.972;2023-06-19T12:42:15;3.45;;;3.00;;
15635;SDS011;7917;50.818;6.972;2023-06-19T12:44:43;3.28;;;2.75;;
15635;SDS011;7917;50.818;6.972;2023-06-19T12:47:10;3.63;;;2.65;;
15635;SDS011;7917;50.818;6.972;2023-06-19T12:49:38;3.28;;;2.88;;
15635;SDS011;7917;50.818;6.972;2023-06-19T12:52:07;4.88;;;2.80;;
15635;SDS011;7917;50.818;6.972;2023-06-19T12:54:35;3.00;;;2.70;;
15635;SDS011;7917;50.818;6.972;2023-06-19T12:57:02;4.22;;;2.55;;
15635;SDS011;7917;50.818;6.972;2023-06-19T12:59:29;3.78;;;2.75;;
15635;SDS011;7917;50.818;6.972;2023-06-19T13:01:58;4.78;;;3.10;;
15635;SDS011;7917;50.818;6.972;2023-06-19T13:04:25;4.13;;;2.60;;
15635;SDS011;7917;50.818;6.972;2023-06-19T13:06:52;4.60;;;2.55;;
15635;SDS011;7917;50.818;6.972;2023-06-19T13:09:21;4.50;;;3.28;;
15635;SDS011;7917;50.818;6.972;2023-06-19T13:11:49;4.60;;;2.55;;
15635;SDS011;7917;50.818;6.972;2023-06-19T13:14:16;3.75;;;2.78;;
15635;SDS011;7917;50.818;6.972;2023-06-19T13:16:44;4.43;;;2.35;;
15635;SDS011;7917;50.818;6.972;2023-06-19T13:19:11;4.53;;;2.40;;
15635;SDS011;7917;50.818;6.972;2023-06-19T13:21:38;3.63;;;2.45;;
15635;SDS011;7917;50.818;6.972;2023-06-19T13:26:55;3.47;;;2.60;;
15635;SDS011;7917;50.818;6.972;2023-06-19T13:29:22;3.05;;;2.60;;
15635;SDS011;7917;50.818;6.972;2023-06-19T13:31:51;9.10;;;2.95;;
15635;SDS011;7917;50.818;6.972;2023-06-19T13:34:18;6.00;;;2.70;;
15635;SDS011;7917;50.818;6.972;2023-06-19T13:36:47;4.22;;;3.20;;
15635;SDS011;7917;50.818;6.972;2023-06-19T13:39:16;5.90;;;3.17;;
15635;SDS011;7917;50.818;6.972;2023-06-19T13:41:45;3.13;;;2.78;;
15635;SDS011;7917;50.818;6.972;2023-06-19T13:44:12;3.05;;;2.55;;
15635;SDS011;7917;50.818;6.972;2023-06-19T13:46:40;3.13;;;2.83;;
15635;SDS011;7917;50.818;6.972;2023-06-19T13:49:07;4.15;;;2.67;;
15635;SDS011;7917;50.818;6.972;2023-06-19T13:51:36;3.10;;;2.80;;
15635;SDS011;7917;50.818;6.972;2023-06-19T13:54:03;2.72;;;2.53;;
15635;SDS011;7917;50.818;6.972;2023-06-19T13:56:31;5.95;;;2.47;;
15635;SDS011;7917;50.818;6.972;2023-06-19T13:58:59;5.00;;;2.63;;
15635;SDS011;7917;50.818;6.972;2023-06-19T14:01:27;2.88;;;2.50;;
15635;SDS011;7917;50.818;6.972;2023-06-19T14:03:54;3.10;;;2.30;;
15635;SDS011;7917;50.818;6.972;2023-06-19T14:06:23;5.43;;;2.45;;
15635;SDS011;7917;50.818;6.972;2023-06-19T14:08:50;3.78;;;2.80;;
15635;SDS011;7917;50.818;6.972;2023-06-19T14:11:18;5.22;;;3.03;;
15635;SDS011;7917;50.818;6.972;2023-06-19T14:13:45;5.38;;;2.83;;
15635;SDS011;7917;50.818;6.972;2023-06-19T14:16:26;3.58;;;2.85;;
15635;SDS011;7917;50.818;6.972;2023-06-19T14:18:53;5.05;;;2.88;;
15635;SDS011;7917;50.818;6.972;2023-06-19T14:21:20;3.83;;;2.45;;
15635;SDS011;7917;50.818;6.972;2023-06-19T14:23:48;3.83;;;2.72;;
15635;SDS011;7917;50.818;6.972;2023-06-19T14:26:15;4.57;;;2.40;;
15635;SDS011;7917;50.818;6.972;2023-06-19T14:28:43;3.08;;;2.72;;
15635;SDS011;7917;50.818;6.972;2023-06-19T14:31:10;3.25;;;2.80;;
15635;SDS011;7917;50.818;6.972;2023-06-19T14:33:38;7.88;;;3.00;;
15635;SDS011;7917;50.818;6.972;2023-06-19T14:36:05;3.00;;;2.70;;
15635;SDS011;7917;50.818;6.972;2023-06-19T14:38:32;3.55;;;2.70;;
15635;SDS011;7917;50.818;6.972;2023-06-19T14:40:59;3.97;;;2.67;;
15635;SDS011;7917;50.818;6.972;2023-06-19T14:43:27;3.95;;;3.45;;
15635;SDS011;7917;50.818;6.972;2023-06-19T14:45:55;3.65;;;2.70;;
15635;SDS011;7917;50.818;6.972;2023-06-19T14:48:22;3.55;;;2.83;;
15635;SDS011;7917;50.818;6.972;2023-06-19T14:50:50;2.95;;;2.65;;
15635;SDS011;7917;50.818;6.972;2023-06-19T14:53:17;3.90;;;3.22;;
15635;SDS011;7917;50.818;6.972;2023-06-19T14:55:44;4.45;;;2.83;;
15635;SDS011;7917;50.818;6.972;2023-06-19T14:58:12;2.83;;;2.53;;
15635;SDS011;7917;50.818;6.972;2023-06-19T15:00:40;5.65;;;3.20;;
15635;SDS011;7917;50.818;6.972;2023-06-19T15:03:07;3.45;;;2.58;;
15635;SDS011;7917;50.818;6.972;2023-06-19T15:05:34;2.95;;;2.47;;
15635;SDS011;7917;50.818;6.972;2023-06-19T15:08:02;3.55;;;2.78;;
15635;SDS011;7917;50.818;6.972;2023-06-19T15:10:30;3.53;;;2.63;;
15635;SDS011;7917;50.818;6.972;2023-06-19T15:12:58;5.38;;;2.58;;
15635;SDS011;7917;50.818;6.972;2023-06-19T15:15:25;4.10;;;2.70;;
15635;SDS011;7917;50.818;6.972;2023-06-19T15:17:52;4.93;;;3.05;;
15635;SDS011;7917;50.818;6.972;2023-06-19T15:20:19;3.17;;;2.78;;
15635;SDS011;7917;50.818;6.972;2023-06-19T15:22:47;4.05;;;2.90;;
15635;SDS011;7917;50.818;6.972;2023-06-19T15:25:15;4.25;;;2.90;;
15635;SDS011;7917;50.818;6.972;2023-06-19T15:27:42;2.97;;;2.78;;
15635;SDS011;7917;50.818;6.972;2023-06-19T15:30:10;5.75;;;2.78;;
15635;SDS011;7917;50.818;6.972;2023-06-19T15:32:38;3.67;;;2.67;;
15635;SDS011;7917;50.818;6.972;2023-06-19T15:35:06;3.63;;;3.25;;
15635;SDS011;7917;50.818;6.972;2023-06-19T15:37:33;5.38;;;2.67;;
15635;SDS011;7917;50.818;6.972;2023-06-19T15:40:04;3.05;;;2.75;;
15635;SDS011;7917;50.818;6.972;2023-06-19T15:42:32;5.60;;;3.10;;
15635;SDS011;7917;50.818;6.972;2023-06-19T15:44:59;3.58;;;3.15;;
15635;SDS011;7917;50.818;6.972;2023-06-19T15:47:27;5.40;;;2.60;;
15635;SDS011;7917;50.818;6.972;2023-06-19T15:49:54;3.10;;;2.75;;
15635;SDS011;7917;50.818;6.972;2023-06-19T15:52:21;4.78;;;2.80;;
15635;SDS011;7917;50.818;6.972;2023-06-19T15:54:49;3.10;;;2.80;;
15635;SDS011;7917;50.818;6.972;2023-06-19T15:57:16;5.15;;;3.03;;
15635;SDS011;7917;50.818;6.972;2023-06-19T15:59:44;3.20;;;2.90;;
15635;SDS011;7917;50.818;6.972;2023-06-19T16:02:15;3.08;;;2.70;;
15635;SDS011;7917;50.818;6.972;2023-06-19T16:04:42;3.17;;;2.78;;
15635;SDS011;7917;50.818;6.972;2023-06-19T16:07:09;4.70;;;2.90;;
15635;SDS011;7917;50.818;6.972;2023-06-19T16:09:36;3.00;;;2.70;;
15635;SDS011;7917;50.818;6.972;2023-06-19T16:12:04;3.92;;;2.92;;
15635;SDS011;7917;50.818;6.972;2023-06-19T16:14:31;3.80;;;2.60;;
15635;SDS011;7917;50.818;6.972;2023-06-19T16:16:59;2.83;;;2.33;;
15635;SDS011;7917;50.818;6.972;2023-06-19T16:19:26;4.75;;;3.00;;
15635;SDS011;7917;50.818;6.972;2023-06-19T16:21:54;2.78;;;2.58;;
15635;SDS011;7917;50.818;6.972;2023-06-19T16:24:21;3.20;;;2.70;;
15635;SDS011;7917;50.818;6.972;2023-06-19T16:26:48;4.75;;;2.35;;
15635;SDS011;7917;50.818;6.972;2023-06-19T16:29:15;2.88;;;2.60;;